METAR Data
IDs: Format: Raw Decoded Include TAF

Data at: 0613 UTC 22 Oct 2018

KVIS 220556Z AUTO 00000KT 10SM CLR 14/08 A2990 RMK AO2 SLP130 T01440083 10272 20133 53008
KVIS 220456Z AUTO 00000KT 10SM CLR 16/07 A2988 RMK AO2 SLP126 T01610072
KVIS 220356Z AUTO 33003KT 10SM CLR 18/08 A2987 RMK AO2 SLP122 T01780083
KVIS 220256Z AUTO 00000KT 10SM CLR 20/08 A2987 RMK AO2 SLP123 T02000078 53004
KVIS 220156Z AUTO 02005KT 10SM CLR 22/08 A2986 RMK AO2 SLP118 T02220083
KVIS 220056Z AUTO 36004KT 10SM CLR 26/08 A2986 RMK AO2 SLP116 T02560078
KVIS 212356Z AUTO 32005KT 10SM CLR 27/07 A2986 RMK AO2 SLP117 T02720067 10278 20211 56016
KVIS 212256Z AUTO 31003KT 10SM CLR 27/07 A2987 RMK AO2 SLP120 T02720072
KVIS 212156Z AUTO 31006KT 10SM CLR 27/06 A2989 RMK AO2 SLP126 T02720056
KVIS 212056Z AUTO 00000KT 5SM HZ CLR 27/06 A2991 RMK AO2 SLP133 T02670061 58019
KVIS 211956Z AUTO 00000KT 10SM CLR 26/07 A2993 RMK AO2 SLP142 T02560067
KVIS 211856Z AUTO 20005KT 9SM CLR 23/07 A2995 RMK AO2 SLP149 T02330072
KVIS 211756Z AUTO VRB03KT 7SM CLR 21/08 A2996 RMK AO2 SLP152 T02110083 10211 20083 58001
KVIS 211656Z AUTO 12005KT 8SM CLR 18/08 A2997 RMK AO2 SLP157 T01780083
KVIS 211556Z AUTO 14004KT 8SM CLR 14/08 A2997 RMK AO2 SLP158 T01390078
KVIS 211456Z AUTO 14003KT 10SM CLR 09/06 A2996 RMK AO2 SLP155 T00940061 53012
KVIS 211356Z AUTO 11004KT 8SM CLR 09/06 A2995 RMK AO2 SLP148 T00890061
KVIS 211256Z AUTO 13003KT 10SM CLR 11/07 A2993 RMK AO2 SLP142 T01060067
KVIS 211156Z AUTO 15003KT 10SM CLR 11/07 A2993 RMK AO2 SLP140 T01060067 10172 20106 55004
KVIS 211056Z AUTO 00000KT 10SM CLR 11/06 A2993 RMK AO2 SLP139 T01060061
KVIS 210956Z AUTO 09004KT 3SM HZ CLR 11/07 A2993 RMK AO2 SLP142 T01110072
KVIS 210856Z AUTO 00000KT 9SM CLR 13/07 A2994 RMK AO2 SLP144 T01280072 58002
KVIS 210756Z AUTO 18005KT 10SM CLR 12/07 A2995 RMK AO2 SLP149 T01170072 402940089
KVIS 210656Z AUTO 00000KT 10SM CLR 14/07 A2995 RMK AO2 SLP147 T01390067